Aviation Digital Data Service (ADDS)

Output produced by METARs form (0140 UTC 26 April 2019)
found at http://www.aviationweather.gov/metar/data/
 
TAF AMD LECO 252257Z 2522/2621 26012KT 9999 SCT025 SCT040 TX12/2612Z TN07/2606Z 
     PROB30 
     TEMPO 2522/2604 RA 
     TEMPO 2523/2603 32012KT
       
TAF LEAB 252300Z 2600/2609 24010KT 9999 FEW020 SCT035
       
TAF AMD LERI 251607Z 2516/2524 26007KT 9999 FEW035 
     PROB40 
     TEMPO 2516/2518 26012G22KT 
     BECMG 2518/2520 32010KT
       
TAF LEAL 252300Z 2600/2624 28009KT 9999 FEW030 TX22/2612Z TN11/2606Z 
     TEMPO 2600/2616 30015G25KT 
     TEMPO 2602/2616 22006KT 
     TEMPO 2616/2619 06008KT
       
TAF LEAM 252000Z 2521/2621 25019KT 9999 SCT025 TX18/2612Z TN13/2606Z 
     BECMG 2521/2524 35010KT 
     BECMG 2609/2612 17010KT
       
TAF LEGA 251400Z 2515/2524 30005KT 9999 FEW020 SCT030
       
TAF LEAS 252000Z 2521/2621 24014KT 9999 SCT040 TX13/2615Z TN08/2621Z 
     TEMPO 2521/2608 25016G28KT SCT030TCU 
     PROB40 
     TEMPO 2521/2524 24018G33KT SHRA SCT025TCU 
     PROB30 
     TEMPO 2604/2608 3000 SHRA SCT025TCU 
     BECMG 2618/2620 18008KT 
     PROB30 
     TEMPO 2609/2612 28015G25KT 
     PROB30 
     TEMPO 2610/2614 RA
       
TAF LEMD 252300Z 2600/2706 24010KT 9999 FEW025 SCT045 TX17/2615Z TN04/2606Z 
     PROB30 
     TEMPO 2600/2610 3000 BR BKN007 
     TEMPO 2605/2706 VRB05KT 
     TEMPO 2610/2613 10008KT
       
TAF LEBL 252300Z 2600/2624 31007KT 9999 FEW025 TX21/2612Z TN12/2606Z 
     TEMPO 2600/2608 25006KT 
     TEMPO 2608/2615 29012G24KT 
     BECMG 2616/2618 06010KT 
     BECMG 2620/2622 34006KT
       
TAF LEBB 252300Z 2600/2624 24005KT 9999 SCT040 TX14/2614Z TN08/2624Z 
     PROB30 
     TEMPO 2601/2603 TS SCT030CB 
     BECMG 2604/2606 28015KT 
     TEMPO 2606/2614 27015G25KT 
     BECMG 2617/2620 20003KT
       
TAF LEBG 251700Z 2518/2603 22014KT 9999 SCT020 SCT035 
     TEMPO 2518/2524 23015G29KT 
     PROB40 
     TEMPO 2518/2524 22022G37KT 
     PROB40 
     TEMPO 2518/2520 4000 SHRA BKN014 SCT025TCU
       
TAF LEBA 251700Z 2518/2603 28010KT 9999 FEW040 
     BECMG 2518/2521 VRB03KT
       
TAF LEVS 251700Z 2518/2603 23015KT 9999 SCT020 SCT040 
     TEMPO 2518/2520 23015G27KT 
     PROB30 
     TEMPO 2518/2519 23022G32KT
       
TAF GCFV 252000Z 2521/2621 35009KT 9999 BKN030 TX23/2614Z TN18/2605Z 
     BECMG 2609/2611 05018KT
       
TAF LEGT 251700Z 2518/2603 25015KT 9999 SCT020 SCT040 
     TEMPO 2518/2520 25015G27KT 
     PROB30 
     TEMPO 2518/2519 25022G32KT
       
TAF LEGE 252300Z 2600/2624 VRB04KT 9999 FEW030 TX20/2613Z TN07/2606Z 
     TEMPO 2600/2605 29010KT 
     BECMG 2610/2612 15008KT 
     PROB30 
     TEMPO 2612/2617 SHRA FEW040TCU BKN050 
     BECMG 2618/2620 VRB03KT
       
TAF GCLP 252000Z 2521/2621 36018KT 9999 BKN030 TX23/2614Z TN16/2605Z 
     PROB30 
     TEMPO 2603/2609 RA 
     PROB40 
     TEMPO 2615/2619 02022G32KT
       
TAF LEGR 252000Z 2521/2621 VRB03KT 9999 SCT020 BKN035 TX21/2615Z TN04/2603Z 
     PROB40 
     TEMPO 2523/2608 3000 BR 
     BECMG 2612/2614 35010KT 
     BECMG 2618/2620 VRB03KT
       
TAF GCHI 252000Z 2521/2621 36013KT 9999 SCT030 TX22/2614Z TN18/2605Z
       
TAF LEIB 252000Z 2521/2621 29010KT 9999 FEW020 TX18/2612Z TN11/2606Z 
     BECMG 2612/2614 22006KT
       
TAF COR LEJR 252300Z 2600/2624 34004KT CAVOK TX23/2615Z TN06/2606Z 
     PROB30 
     TEMPO 2602/2607 4000 BR 
     BECMG 2606/2608 04010KT
       
TAF GCGM 252000Z 2521/2621 33008KT 9999 FEW030 TX22/2614Z TN16/2605Z
       
TAF GCLA 252000Z 2521/2621 36009KT 9999 BKN030 TX22/2614Z TN16/2605Z 
     PROB40 
     TEMPO 2603/2612 RA BKN014
       
TAF GCRR 252000Z 2521/2621 36011KT 9999 BKN030 TX25/2614Z TN16/2605Z 
     BECMG 2609/2611 01021KT 
     PROB40 
     TEMPO 2612/2619 01021G31KT
       
TAF LELN 251700Z 2518/2603 22012KT 9999 SCT020 BKN040 
     TEMPO 2518/2520 22015G27KT 
     PROB30 
     TEMPO 2518/2519 22020G32KT 
     PROB40 
     TEMPO 2518/2521 3000 SHRA BKN012 SCT020TCU
       
TAF LEMG 252300Z 2600/2624 31008KT 9999 SCT045 TX22/2613Z TN11/2606Z 
     PROB40 
     TEMPO 2601/2610 29015G25KT 
     TEMPO 2612/2616 VRB04KT 
     BECMG 2620/2622 VRB03KT
       
TAF GEML 252000Z 2521/2621 26012KT 9999 FEW030 TX22/2614Z TN13/2606Z 
     TEMPO 2521/2524 26015G25KT
       
TAF LEMH 252000Z 2521/2621 22009KT 9999 FEW020 TX19/2613Z TN11/2606Z 
     BECMG 2606/2608 28015KT 
     BECMG 2616/2619 VRB04KT
       
TAF LEMO 252300Z 2600/2609 34005KT CAVOK 
     PROB30 
     TEMPO 2602/2607 4000 BR
       
TAF LEPP 252000Z 2521/2621 20009KT 9999 FEW030 SCT040 TX12/2613Z TN05/2621Z 
     PROB30 
     TEMPO 2521/2523 23015G25KT SHRA TS SCT025TCU SCT030CB 
     BECMG 2608/2611 33010KT
       
TAF LERS 252000Z 2521/2621 30010KT 9999 SCT015 TX23/2612Z TN11/2606Z 
     TEMPO 2523/2608 29005KT 
     TEMPO 2608/2618 29015G25KT
       
TAF LERT 252300Z 2600/2609 35007KT CAVOK
       
TAF LESA 252300Z 2600/2624 25011KT 9999 SCT020 BKN035 TX14/2615Z TN03/2606Z 
     BECMG 2607/2609 29011KT 
     PROB30 
     TEMPO 2600/2609 2000 BR BKN005 
     TEMPO 2619/2624 VRB04KT
       
TAF LESO 252300Z 2600/2624 23012KT 9999 SCT030 TX15/2615Z TN08/2624Z 
     PROB40 
     TEMPO 2602/2609 26018G32KT 3000 SHRA SCT020TCU 
     PROB30 
     TEMPO 2603/2607 TS SCT030CB 
     TEMPO 2603/2614 26015G30KT 
     BECMG 2606/2610 29010KT
       
TAF LEXJ 252000Z 2521/2621 VRB05KT 9999 SCT040 TX14/2614Z TN09/2600Z 
     PROB40 
     TEMPO 2521/2524 26015G25KT SHRA SCT025TCU 
     PROB30 
     TEMPO 2522/2604 4500 SHRA TS BKN025CB 
     BECMG 2523/2601 25015KT 
     PROB40 
     TEMPO 2604/2612 27018G30KT 3000 SHRA SCT025TCU
       
TAF LEST 252300Z 2600/2624 27008KT 9999 SCT030 TX12/2615Z TN06/2605Z 
     PROB40 
     TEMPO 2600/2604 3000 RA 
     PROB30 
     TEMPO 2604/2608 3000 SHRA SCT030TCU
       
TAF LESU 251400Z 2515/2615 22005KT 9999 BKN010 TX17/2614Z TN01/2606Z 
     PROB40 
     TEMPO 2515/2517 23015G25KT 2000 TSRA FEW020CB 
     BECMG 2517/2519 VRB03KT
       
TAF LEZL 252000Z 2521/2621 31004KT CAVOK TX25/2615Z TN07/2603Z 
     PROB40 
     TEMPO 2601/2607 3000 BR
       
TAF LEBZ 252300Z 2600/2624 24007KT CAVOK TX21/2615Z TN06/2606Z 
     PROB30 
     TEMPO 2602/2608 3000 BR
       
TAF GCXO 252000Z 2521/2621 33013KT 9999 SCT015 TX19/2614Z TN11/2605Z 
     BECMG 2522/2524 BKN012 
     PROB40 
     TEMPO 2603/2609 03007KT 2000 RADZ BCFG BKN006 
     PROB30 
     TEMPO 2603/2606 0700 FG BKN002
       
TAF AMD GCTS 252332Z 2523/2621 03009KT 9999 FEW030 TX24/2614Z TN16/2605Z 
     BECMG 2609/2611 08022KT 
     PROB30 
     TEMPO 2612/2619 09021G32KT
       
TAF LETO 252300Z 2600/2624 23010KT 9999 FEW025 SCT045 TX17/2615Z TN04/2606Z 
     PROB30 
     TEMPO 2600/2610 3000 BR BKN007 
     TEMPO 2605/2624 VRB05KT 
     TEMPO 2610/2613 12008KT
       
TAF LEVC 252300Z 2600/2624 25008KT 9999 FEW020 TX22/2612Z TN10/2606Z 
     TEMPO 2608/2611 30012G24KT 
     BECMG 2613/2615 08012KT
       
TAF LEVD 252300Z 2600/2624 26015KT 9999 SCT020 BKN035 TX14/2615Z TN04/2606Z 
     PROB30 
     TEMPO 2600/2610 2000 BR BKN005 
     BECMG 2622/2624 VRB04KT
       
TAF LEVX 252300Z 2600/2624 29010KT 9999 SCT030 TX13/2614Z TN06/2624Z 
     PROB40 
     TEMPO 2600/2604 3000 SHRA SCT020TCU BKN030 
     TEMPO 2600/2611 VRB03KT 
     BECMG 2618/2620 VRB03KT
       
TAF LEVT 252300Z 2600/2624 22012KT 9999 SCT030 TX13/2613Z TN05/2606Z 
     PROB30 
     TEMPO 2600/2602 22015G25KT 
     BECMG 2607/2610 31010KT 
     TEMPO 2616/2624 03008KT
       
TAF LEZG 252300Z 2600/2624 26008KT 9999 FEW050 TX19/2614Z TN08/2606Z 
     PROB30 
     TEMPO 2600/2606 23015G28KT 
     BECMG 2607/2609 31010KT